sensor_id;sensor_type;location;lat;lon;timestamp;P1;durP1;ratioP1;P2;durP2;ratioP2
30062;SDS011;16889;67.864;24.990;2023-08-01T00:00:47;4.13;;;2.67;;
30062;SDS011;16889;67.864;24.990;2023-08-01T00:05:33;3.72;;;2.50;;
30062;SDS011;16889;67.864;24.990;2023-08-01T00:10:19;3.72;;;2.97;;
30062;SDS011;16889;67.864;24.990;2023-08-01T00:15:05;5.43;;;2.80;;
30062;SDS011;16889;67.864;24.990;2023-08-01T00:19:51;4.40;;;2.80;;
30062;SDS011;16889;67.864;24.990;2023-08-01T00:24:37;3.88;;;3.00;;
30062;SDS011;16889;67.864;24.990;2023-08-01T00:29:23;3.15;;;2.75;;
30062;SDS011;16889;67.864;24.990;2023-08-01T00:34:09;3.47;;;2.75;;
30062;SDS011;16889;67.864;24.990;2023-08-01T00:38:55;6.68;;;2.88;;
30062;SDS011;16889;67.864;24.990;2023-08-01T00:43:41;4.28;;;3.30;;
30062;SDS011;16889;67.864;24.990;2023-08-01T00:48:28;4.72;;;3.20;;
30062;SDS011;16889;67.864;24.990;2023-08-01T00:53:14;4.88;;;3.30;;
30062;SDS011;16889;67.864;24.990;2023-08-01T00:58:01;6.53;;;3.13;;
30062;SDS011;16889;67.864;24.990;2023-08-01T01:02:47;4.47;;;3.05;;
30062;SDS011;16889;67.864;24.990;2023-08-01T01:07:33;3.75;;;3.10;;
30062;SDS011;16889;67.864;24.990;2023-08-01T01:12:20;3.50;;;2.90;;
30062;SDS011;16889;67.864;24.990;2023-08-01T01:17:06;4.75;;;3.30;;
30062;SDS011;16889;67.864;24.990;2023-08-01T01:21:52;4.75;;;3.83;;
30062;SDS011;16889;67.864;24.990;2023-08-01T01:26:38;5.38;;;3.78;;
30062;SDS011;16889;67.864;24.990;2023-08-01T01:31:27;5.47;;;3.92;;
30062;SDS011;16889;67.864;24.990;2023-08-01T01:36:13;5.35;;;4.07;;
30062;SDS011;16889;67.864;24.990;2023-08-01T01:40:59;6.22;;;4.55;;
30062;SDS011;16889;67.864;24.990;2023-08-01T01:45:45;6.80;;;4.28;;
30062;SDS011;16889;67.864;24.990;2023-08-01T01:50:31;9.00;;;4.72;;
30062;SDS011;16889;67.864;24.990;2023-08-01T01:55:17;7.10;;;4.65;;
30062;SDS011;16889;67.864;24.990;2023-08-01T02:00:06;6.47;;;4.28;;
30062;SDS011;16889;67.864;24.990;2023-08-01T02:04:55;8.93;;;4.78;;
30062;SDS011;16889;67.864;24.990;2023-08-01T02:09:41;6.38;;;5.15;;
30062;SDS011;16889;67.864;24.990;2023-08-01T02:14:27;7.70;;;4.80;;
30062;SDS011;16889;67.864;24.990;2023-08-01T02:19:13;8.88;;;5.72;;
30062;SDS011;16889;67.864;24.990;2023-08-01T02:23:59;8.38;;;5.88;;
30062;SDS011;16889;67.864;24.990;2023-08-01T02:28:45;15.75;;;6.78;;
30062;SDS011;16889;67.864;24.990;2023-08-01T02:33:31;10.90;;;6.47;;
30062;SDS011;16889;67.864;24.990;2023-08-01T02:38:17;10.23;;;6.20;;
30062;SDS011;16889;67.864;24.990;2023-08-01T02:43:03;8.52;;;6.30;;
30062;SDS011;16889;67.864;24.990;2023-08-01T02:47:48;9.63;;;6.25;;
30062;SDS011;16889;67.864;24.990;2023-08-01T02:52:34;8.63;;;6.63;;
30062;SDS011;16889;67.864;24.990;2023-08-01T02:57:20;10.50;;;7.00;;
30062;SDS011;16889;67.864;24.990;2023-08-01T03:02:06;9.43;;;6.82;;
30062;SDS011;16889;67.864;24.990;2023-08-01T03:06:52;12.00;;;7.60;;
30062;SDS011;16889;67.864;24.990;2023-08-01T03:11:38;10.05;;;7.05;;
30062;SDS011;16889;67.864;24.990;2023-08-01T03:16:24;10.23;;;7.30;;
30062;SDS011;16889;67.864;24.990;2023-08-01T03:21:10;12.35;;;7.63;;
30062;SDS011;16889;67.864;24.990;2023-08-01T03:25:56;10.68;;;7.57;;
30062;SDS011;16889;67.864;24.990;2023-08-01T03:30:42;11.25;;;7.63;;
30062;SDS011;16889;67.864;24.990;2023-08-01T03:35:29;12.20;;;7.70;;
30062;SDS011;16889;67.864;24.990;2023-08-01T03:40:15;11.98;;;7.82;;
30062;SDS011;16889;67.864;24.990;2023-08-01T03:45:01;13.38;;;8.05;;
30062;SDS011;16889;67.864;24.990;2023-08-01T03:49:47;13.07;;;7.68;;
30062;SDS011;16889;67.864;24.990;2023-08-01T03:54:33;11.43;;;7.82;;
30062;SDS011;16889;67.864;24.990;2023-08-01T03:59:19;11.75;;;8.00;;
30062;SDS011;16889;67.864;24.990;2023-08-01T04:04:05;9.88;;;7.57;;
30062;SDS011;16889;67.864;24.990;2023-08-01T04:08:52;11.27;;;8.32;;
30062;SDS011;16889;67.864;24.990;2023-08-01T04:13:38;14.80;;;7.53;;
30062;SDS011;16889;67.864;24.990;2023-08-01T04:18:24;14.65;;;8.02;;
30062;SDS011;16889;67.864;24.990;2023-08-01T04:23:09;9.85;;;7.63;;
30062;SDS011;16889;67.864;24.990;2023-08-01T04:27:55;11.82;;;7.75;;
30062;SDS011;16889;67.864;24.990;2023-08-01T04:32:41;10.68;;;7.68;;
30062;SDS011;16889;67.864;24.990;2023-08-01T04:37:27;12.55;;;8.02;;
30062;SDS011;16889;67.864;24.990;2023-08-01T04:42:13;11.13;;;7.60;;
30062;SDS011;16889;67.864;24.990;2023-08-01T04:46:59;12.80;;;8.50;;
30062;SDS011;16889;67.864;24.990;2023-08-01T04:51:45;12.15;;;8.05;;
30062;SDS011;16889;67.864;24.990;2023-08-01T04:56:32;11.18;;;8.40;;
30062;SDS011;16889;67.864;24.990;2023-08-01T05:01:18;10.90;;;8.25;;
30062;SDS011;16889;67.864;24.990;2023-08-01T05:06:04;11.95;;;8.32;;
30062;SDS011;16889;67.864;24.990;2023-08-01T05:10:50;11.82;;;8.35;;
30062;SDS011;16889;67.864;24.990;2023-08-01T05:15:36;15.25;;;8.55;;
30062;SDS011;16889;67.864;24.990;2023-08-01T05:20:22;11.85;;;8.20;;
30062;SDS011;16889;67.864;24.990;2023-08-01T05:25:08;12.13;;;8.07;;
30062;SDS011;16889;67.864;24.990;2023-08-01T05:29:55;10.90;;;8.05;;
30062;SDS011;16889;67.864;24.990;2023-08-01T05:34:41;11.85;;;8.30;;
30062;SDS011;16889;67.864;24.990;2023-08-01T05:39:27;13.35;;;9.13;;
30062;SDS011;16889;67.864;24.990;2023-08-01T05:44:13;14.82;;;9.18;;
30062;SDS011;16889;67.864;24.990;2023-08-01T05:48:59;15.60;;;9.10;;
30062;SDS011;16889;67.864;24.990;2023-08-01T05:53:45;13.90;;;8.75;;
30062;SDS011;16889;67.864;24.990;2023-08-01T05:58:31;14.18;;;9.13;;
30062;SDS011;16889;67.864;24.990;2023-08-01T06:03:17;13.35;;;8.50;;
30062;SDS011;16889;67.864;24.990;2023-08-01T06:08:03;10.65;;;8.13;;
30062;SDS011;16889;67.864;24.990;2023-08-01T06:17:37;12.80;;;8.93;;
30062;SDS011;16889;67.864;24.990;2023-08-01T06:22:23;12.27;;;8.35;;
30062;SDS011;16889;67.864;24.990;2023-08-01T06:27:09;13.38;;;7.75;;
30062;SDS011;16889;67.864;24.990;2023-08-01T06:31:55;10.65;;;7.60;;
30062;SDS011;16889;67.864;24.990;2023-08-01T06:36:41;11.57;;;8.13;;
30062;SDS011;16889;67.864;24.990;2023-08-01T06:41:27;10.02;;;7.85;;
30062;SDS011;16889;67.864;24.990;2023-08-01T06:46:13;10.15;;;7.85;;
30062;SDS011;16889;67.864;24.990;2023-08-01T06:50:59;10.52;;;7.60;;
30062;SDS011;16889;67.864;24.990;2023-08-01T06:55:44;9.68;;;7.43;;
30062;SDS011;16889;67.864;24.990;2023-08-01T07:00:30;10.65;;;6.78;;
30062;SDS011;16889;67.864;24.990;2023-08-01T07:05:16;8.15;;;6.53;;
30062;SDS011;16889;67.864;24.990;2023-08-01T07:10:03;9.18;;;6.70;;
30062;SDS011;16889;67.864;24.990;2023-08-01T07:14:49;8.60;;;6.10;;
30062;SDS011;16889;67.864;24.990;2023-08-01T07:19:35;6.63;;;5.38;;
30062;SDS011;16889;67.864;24.990;2023-08-01T07:24:21;6.28;;;5.53;;
30062;SDS011;16889;67.864;24.990;2023-08-01T07:29:06;5.40;;;4.50;;
30062;SDS011;16889;67.864;24.990;2023-08-01T07:33:56;6.30;;;4.70;;
30062;SDS011;16889;67.864;24.990;2023-08-01T07:38:42;6.57;;;4.40;;
30062;SDS011;16889;67.864;24.990;2023-08-01T07:43:28;4.93;;;4.15;;
30062;SDS011;16889;67.864;24.990;2023-08-01T07:48:14;5.25;;;4.20;;
30062;SDS011;16889;67.864;24.990;2023-08-01T07:53:00;5.13;;;4.03;;
30062;SDS011;16889;67.864;24.990;2023-08-01T07:57:46;5.82;;;3.97;;
30062;SDS011;16889;67.864;24.990;2023-08-01T08:02:35;4.60;;;3.65;;
30062;SDS011;16889;67.864;24.990;2023-08-01T08:07:21;4.57;;;3.83;;
30062;SDS011;16889;67.864;24.990;2023-08-01T08:12:07;6.70;;;4.00;;
30062;SDS011;16889;67.864;24.990;2023-08-01T08:16:53;4.65;;;3.58;;
30062;SDS011;16889;67.864;24.990;2023-08-01T08:21:39;5.75;;;3.88;;
30062;SDS011;16889;67.864;24.990;2023-08-01T08:26:25;5.25;;;3.78;;
30062;SDS011;16889;67.864;24.990;2023-08-01T08:31:11;6.38;;;3.95;;
30062;SDS011;16889;67.864;24.990;2023-08-01T08:35:57;4.60;;;3.80;;
30062;SDS011;16889;67.864;24.990;2023-08-01T08:45:50;4.43;;;3.50;;
30062;SDS011;16889;67.864;24.990;2023-08-01T08:50:42;5.20;;;4.07;;
30062;SDS011;16889;67.864;24.990;2023-08-01T08:55:29;5.97;;;4.10;;
30062;SDS011;16889;67.864;24.990;2023-08-01T09:00:17;5.65;;;3.47;;
30062;SDS011;16889;67.864;24.990;2023-08-01T09:05:04;6.10;;;3.70;;
30062;SDS011;16889;67.864;24.990;2023-08-01T09:09:49;5.00;;;4.00;;
30062;SDS011;16889;67.864;24.990;2023-08-01T09:14:35;5.25;;;3.50;;
30062;SDS011;16889;67.864;24.990;2023-08-01T09:19:23;3.80;;;3.35;;
30062;SDS011;16889;67.864;24.990;2023-08-01T09:28:59;4.85;;;3.45;;
30062;SDS011;16889;67.864;24.990;2023-08-01T09:33:45;5.30;;;3.47;;
30062;SDS011;16889;67.864;24.990;2023-08-01T09:38:35;4.20;;;3.00;;
30062;SDS011;16889;67.864;24.990;2023-08-01T09:43:22;4.15;;;3.40;;
30062;SDS011;16889;67.864;24.990;2023-08-01T09:48:08;3.70;;;3.03;;
30062;SDS011;16889;67.864;24.990;2023-08-01T09:52:54;3.63;;;2.90;;
30062;SDS011;16889;67.864;24.990;2023-08-01T09:57:40;3.45;;;2.75;;
30062;SDS011;16889;67.864;24.990;2023-08-01T10:02:31;5.18;;;2.78;;
30062;SDS011;16889;67.864;24.990;2023-08-01T10:07:19;3.90;;;2.90;;
30062;SDS011;16889;67.864;24.990;2023-08-01T10:12:12;3.28;;;2.70;;
30062;SDS011;16889;67.864;24.990;2023-08-01T10:21:49;3.88;;;2.78;;
30062;SDS011;16889;67.864;24.990;2023-08-01T10:26:35;3.55;;;2.60;;
30062;SDS011;16889;67.864;24.990;2023-08-01T10:31:21;4.05;;;2.78;;
30062;SDS011;16889;67.864;24.990;2023-08-01T10:36:18;3.15;;;2.60;;
30062;SDS011;16889;67.864;24.990;2023-08-01T10:41:17;3.47;;;2.42;;
30062;SDS011;16889;67.864;24.990;2023-08-01T10:46:13;3.53;;;2.40;;
30062;SDS011;16889;67.864;24.990;2023-08-01T10:50:59;3.80;;;2.72;;
30062;SDS011;16889;67.864;24.990;2023-08-01T10:55:47;3.22;;;2.20;;
30062;SDS011;16889;67.864;24.990;2023-08-01T11:00:34;2.50;;;2.08;;
30062;SDS011;16889;67.864;24.990;2023-08-01T11:05:20;3.58;;;2.22;;
30062;SDS011;16889;67.864;24.990;2023-08-01T11:10:12;4.97;;;2.50;;
30062;SDS011;16889;67.864;24.990;2023-08-01T11:14:59;1.92;;;1.70;;
30062;SDS011;16889;67.864;24.990;2023-08-01T11:19:45;2.95;;;2.05;;
30062;SDS011;16889;67.864;24.990;2023-08-01T11:24:31;3.47;;;2.10;;
30062;SDS011;16889;67.864;24.990;2023-08-01T11:29:18;6.15;;;2.00;;
30062;SDS011;16889;67.864;24.990;2023-08-01T11:34:04;4.32;;;1.80;;
30062;SDS011;16889;67.864;24.990;2023-08-01T11:38:50;3.95;;;1.75;;
30062;SDS011;16889;67.864;24.990;2023-08-01T11:43:40;4.00;;;1.60;;
30062;SDS011;16889;67.864;24.990;2023-08-01T11:48:27;4.70;;;2.00;;
30062;SDS011;16889;67.864;24.990;2023-08-01T11:53:20;2.17;;;1.80;;
30062;SDS011;16889;67.864;24.990;2023-08-01T11:58:06;3.15;;;1.90;;
30062;SDS011;16889;67.864;24.990;2023-08-01T12:03:13;3.22;;;1.80;;
30062;SDS011;16889;67.864;24.990;2023-08-01T12:08:11;3.95;;;2.10;;
30062;SDS011;16889;67.864;24.990;2023-08-01T12:12:58;2.05;;;1.85;;
30062;SDS011;16889;67.864;24.990;2023-08-01T12:17:44;2.22;;;2.00;;
30062;SDS011;16889;67.864;24.990;2023-08-01T12:22:30;2.10;;;1.80;;
30062;SDS011;16889;67.864;24.990;2023-08-01T12:27:16;1.95;;;1.58;;
30062;SDS011;16889;67.864;24.990;2023-08-01T12:32:04;2.20;;;1.90;;
30062;SDS011;16889;67.864;24.990;2023-08-01T12:36:52;2.72;;;1.70;;
30062;SDS011;16889;67.864;24.990;2023-08-01T12:41:38;1.77;;;1.58;;
30062;SDS011;16889;67.864;24.990;2023-08-01T12:46:24;1.50;;;1.30;;
30062;SDS011;16889;67.864;24.990;2023-08-01T12:51:10;4.40;;;1.30;;
30062;SDS011;16889;67.864;24.990;2023-08-01T12:55:56;1.92;;;1.40;;
30062;SDS011;16889;67.864;24.990;2023-08-01T13:00:43;1.90;;;1.30;;
30062;SDS011;16889;67.864;24.990;2023-08-01T13:05:29;1.75;;;1.20;;
30062;SDS011;16889;67.864;24.990;2023-08-01T13:10:15;5.97;;;1.67;;
30062;SDS011;16889;67.864;24.990;2023-08-01T13:15:01;2.22;;;1.90;;
30062;SDS011;16889;67.864;24.990;2023-08-01T13:19:49;2.60;;;1.45;;
30062;SDS011;16889;67.864;24.990;2023-08-01T13:24:36;3.65;;;1.40;;
30062;SDS011;16889;67.864;24.990;2023-08-01T13:29:22;2.75;;;1.40;;
30062;SDS011;16889;67.864;24.990;2023-08-01T13:34:08;2.65;;;1.40;;
30062;SDS011;16889;67.864;24.990;2023-08-01T13:38:53;3.22;;;1.30;;
30062;SDS011;16889;67.864;24.990;2023-08-01T13:43:40;3.25;;;1.77;;
30062;SDS011;16889;67.864;24.990;2023-08-01T13:48:27;9.10;;;1.77;;
30062;SDS011;16889;67.864;24.990;2023-08-01T13:53:13;5.78;;;1.70;;
30062;SDS011;16889;67.864;24.990;2023-08-01T13:57:59;4.90;;;2.00;;
30062;SDS011;16889;67.864;24.990;2023-08-01T14:02:45;3.95;;;1.65;;
30062;SDS011;16889;67.864;24.990;2023-08-01T14:07:31;1.83;;;1.70;;
30062;SDS011;16889;67.864;24.990;2023-08-01T14:12:19;1.67;;;1.58;;
30062;SDS011;16889;67.864;24.990;2023-08-01T14:17:07;3.30;;;2.10;;
30062;SDS011;16889;67.864;24.990;2023-08-01T14:21:53;1.35;;;1.15;;
30062;SDS011;16889;67.864;24.990;2023-08-01T14:26:39;4.30;;;1.42;;
30062;SDS011;16889;67.864;24.990;2023-08-01T14:31:26;1.73;;;1.58;;
30062;SDS011;16889;67.864;24.990;2023-08-01T14:36:12;2.17;;;1.25;;
30062;SDS011;16889;67.864;24.990;2023-08-01T14:40:58;2.88;;;1.30;;
30062;SDS011;16889;67.864;24.990;2023-08-01T14:45:46;2.30;;;1.30;;
30062;SDS011;16889;67.864;24.990;2023-08-01T14:50:32;5.68;;;1.45;;
30062;SDS011;16889;67.864;24.990;2023-08-01T14:55:19;1.23;;;1.08;;
30062;SDS011;16889;67.864;24.990;2023-08-01T15:00:05;2.35;;;1.15;;
30062;SDS011;16889;67.864;24.990;2023-08-01T15:04:52;6.07;;;1.45;;
30062;SDS011;16889;67.864;24.990;2023-08-01T15:09:43;2.75;;;1.20;;
30062;SDS011;16889;67.864;24.990;2023-08-01T15:14:30;2.63;;;1.13;;
30062;SDS011;16889;67.864;24.990;2023-08-01T15:19:16;2.78;;;1.13;;
30062;SDS011;16889;67.864;24.990;2023-08-01T15:24:02;1.75;;;1.13;;
30062;SDS011;16889;67.864;24.990;2023-08-01T15:28:48;1.10;;;1.00;;
30062;SDS011;16889;67.864;24.990;2023-08-01T15:33:34;3.53;;;1.08;;
30062;SDS011;16889;67.864;24.990;2023-08-01T15:38:21;5.40;;;1.05;;
30062;SDS011;16889;67.864;24.990;2023-08-01T15:43:07;1.95;;;1.05;;
30062;SDS011;16889;67.864;24.990;2023-08-01T15:47:53;4.85;;;1.30;;
30062;SDS011;16889;67.864;24.990;2023-08-01T15:52:39;1.08;;;1.00;;
30062;SDS011;16889;67.864;24.990;2023-08-01T15:57:25;3.25;;;1.00;;
30062;SDS011;16889;67.864;24.990;2023-08-01T16:02:11;2.47;;;1.00;;
30062;SDS011;16889;67.864;24.990;2023-08-01T16:06:57;1.00;;;0.90;;
30062;SDS011;16889;67.864;24.990;2023-08-01T16:11:43;2.03;;;1.17;;
30062;SDS011;16889;67.864;24.990;2023-08-01T16:16:29;1.85;;;1.00;;
30062;SDS011;16889;67.864;24.990;2023-08-01T16:21:15;5.05;;;1.00;;
30062;SDS011;16889;67.864;24.990;2023-08-01T16:26:01;1.08;;;0.98;;
30062;SDS011;16889;67.864;24.990;2023-08-01T16:30:51;1.20;;;1.00;;
30062;SDS011;16889;67.864;24.990;2023-08-01T16:35:37;2.28;;;1.00;;
30062;SDS011;16889;67.864;24.990;2023-08-01T16:40:22;2.85;;;1.08;;
30062;SDS011;16889;67.864;24.990;2023-08-01T16:45:09;2.03;;;1.10;;
30062;SDS011;16889;67.864;24.990;2023-08-01T16:49:56;3.00;;;1.10;;
30062;SDS011;16889;67.864;24.990;2023-08-01T16:54:43;4.50;;;1.30;;
30062;SDS011;16889;67.864;24.990;2023-08-01T16:59:29;1.20;;;1.00;;
30062;SDS011;16889;67.864;24.990;2023-08-01T17:04:14;2.58;;;1.30;;
30062;SDS011;16889;67.864;24.990;2023-08-01T17:09:00;1.55;;;1.00;;
30062;SDS011;16889;67.864;24.990;2023-08-01T17:13:46;1.17;;;1.08;;
30062;SDS011;16889;67.864;24.990;2023-08-01T17:18:32;2.03;;;1.33;;
30062;SDS011;16889;67.864;24.990;2023-08-01T17:23:18;3.20;;;1.20;;
30062;SDS011;16889;67.864;24.990;2023-08-01T17:28:04;2.72;;;1.00;;
30062;SDS011;16889;67.864;24.990;2023-08-01T17:32:50;1.23;;;1.10;;
30062;SDS011;16889;67.864;24.990;2023-08-01T17:37:36;3.28;;;1.40;;
30062;SDS011;16889;67.864;24.990;2023-08-01T17:42:22;1.83;;;1.27;;
30062;SDS011;16889;67.864;24.990;2023-08-01T17:47:08;4.88;;;1.23;;
30062;SDS011;16889;67.864;24.990;2023-08-01T17:51:55;1.45;;;1.30;;
30062;SDS011;16889;67.864;24.990;2023-08-01T17:56:41;1.98;;;1.20;;
30062;SDS011;16889;67.864;24.990;2023-08-01T18:01:27;4.03;;;1.45;;
30062;SDS011;16889;67.864;24.990;2023-08-01T18:06:14;3.28;;;1.13;;
30062;SDS011;16889;67.864;24.990;2023-08-01T18:11:00;1.48;;;1.25;;
30062;SDS011;16889;67.864;24.990;2023-08-01T18:15:46;3.67;;;1.40;;
30062;SDS011;16889;67.864;24.990;2023-08-01T18:20:32;2.97;;;1.40;;
30062;SDS011;16889;67.864;24.990;2023-08-01T18:25:19;1.38;;;1.27;;
30062;SDS011;16889;67.864;24.990;2023-08-01T18:30:05;2.95;;;1.73;;
30062;SDS011;16889;67.864;24.990;2023-08-01T18:34:52;1.83;;;1.58;;
30062;SDS011;16889;67.864;24.990;2023-08-01T18:39:43;3.92;;;1.73;;
30062;SDS011;16889;67.864;24.990;2023-08-01T18:44:29;4.45;;;1.50;;
30062;SDS011;16889;67.864;24.990;2023-08-01T18:49:15;2.85;;;1.63;;
30062;SDS011;16889;67.864;24.990;2023-08-01T18:54:01;3.72;;;1.60;;
30062;SDS011;16889;67.864;24.990;2023-08-01T18:58:48;2.30;;;2.00;;
30062;SDS011;16889;67.864;24.990;2023-08-01T19:03:35;3.33;;;1.83;;
30062;SDS011;16889;67.864;24.990;2023-08-01T19:08:21;4.50;;;1.70;;
30062;SDS011;16889;67.864;24.990;2023-08-01T19:13:07;1.67;;;1.58;;
30062;SDS011;16889;67.864;24.990;2023-08-01T19:17:52;3.13;;;1.95;;
30062;SDS011;16889;67.864;24.990;2023-08-01T19:22:38;3.80;;;2.17;;
30062;SDS011;16889;67.864;24.990;2023-08-01T19:27:25;4.30;;;1.90;;
30062;SDS011;16889;67.864;24.990;2023-08-01T19:32:12;4.10;;;1.70;;
30062;SDS011;16889;67.864;24.990;2023-08-01T19:36:58;3.75;;;1.42;;
30062;SDS011;16889;67.864;24.990;2023-08-01T19:41:44;1.95;;;1.55;;
30062;SDS011;16889;67.864;24.990;2023-08-01T19:46:30;3.67;;;1.77;;
30062;SDS011;16889;67.864;24.990;2023-08-01T19:51:16;1.73;;;1.63;;
30062;SDS011;16889;67.864;24.990;2023-08-01T19:56:02;2.17;;;1.85;;
30062;SDS011;16889;67.864;24.990;2023-08-01T20:00:48;7.78;;;1.80;;
30062;SDS011;16889;67.864;24.990;2023-08-01T20:05:34;4.60;;;1.80;;
30062;SDS011;16889;67.864;24.990;2023-08-01T20:10:20;3.45;;;2.03;;
30062;SDS011;16889;67.864;24.990;2023-08-01T20:15:06;2.75;;;2.10;;
30062;SDS011;16889;67.864;24.990;2023-08-01T20:19:53;2.58;;;1.70;;
30062;SDS011;16889;67.864;24.990;2023-08-01T20:24:39;2.50;;;2.10;;
30062;SDS011;16889;67.864;24.990;2023-08-01T20:29:24;4.30;;;2.70;;
30062;SDS011;16889;67.864;24.990;2023-08-01T20:34:10;3.05;;;2.10;;
30062;SDS011;16889;67.864;24.990;2023-08-01T20:38:57;2.83;;;2.25;;
30062;SDS011;16889;67.864;24.990;2023-08-01T20:43:43;6.40;;;2.20;;
30062;SDS011;16889;67.864;24.990;2023-08-01T20:48:29;2.50;;;2.30;;
30062;SDS011;16889;67.864;24.990;2023-08-01T20:53:16;3.80;;;2.83;;
30062;SDS011;16889;67.864;24.990;2023-08-01T20:58:01;3.25;;;2.95;;
30062;SDS011;16889;67.864;24.990;2023-08-01T21:02:48;3.63;;;2.53;;
30062;SDS011;16889;67.864;24.990;2023-08-01T21:07:34;6.07;;;2.25;;
30062;SDS011;16889;67.864;24.990;2023-08-01T21:12:20;3.67;;;2.40;;
30062;SDS011;16889;67.864;24.990;2023-08-01T21:17:06;4.25;;;2.70;;
30062;SDS011;16889;67.864;24.990;2023-08-01T21:21:54;5.22;;;3.00;;
30062;SDS011;16889;67.864;24.990;2023-08-01T21:26:40;3.13;;;2.83;;
30062;SDS011;16889;67.864;24.990;2023-08-01T21:31:26;5.97;;;3.10;;
30062;SDS011;16889;67.864;24.990;2023-08-01T21:36:12;7.05;;;2.70;;
30062;SDS011;16889;67.864;24.990;2023-08-01T21:40:58;4.75;;;2.85;;
30062;SDS011;16889;67.864;24.990;2023-08-01T21:45:44;5.25;;;3.30;;
30062;SDS011;16889;67.864;24.990;2023-08-01T21:50:38;5.07;;;3.45;;
30062;SDS011;16889;67.864;24.990;2023-08-01T21:55:24;5.15;;;3.08;;
30062;SDS011;16889;67.864;24.990;2023-08-01T22:00:11;3.92;;;3.13;;
30062;SDS011;16889;67.864;24.990;2023-08-01T22:04:58;4.68;;;3.60;;
30062;SDS011;16889;67.864;24.990;2023-08-01T22:09:44;7.35;;;4.30;;
30062;SDS011;16889;67.864;24.990;2023-08-01T22:14:30;6.40;;;3.95;;
30062;SDS011;16889;67.864;24.990;2023-08-01T22:19:16;5.65;;;3.63;;
30062;SDS011;16889;67.864;24.990;2023-08-01T22:24:02;7.45;;;4.28;;
30062;SDS011;16889;67.864;24.990;2023-08-01T22:28:48;9.68;;;6.00;;
30062;SDS011;16889;67.864;24.990;2023-08-01T22:33:34;6.63;;;4.85;;
30062;SDS011;16889;67.864;24.990;2023-08-01T22:38:20;7.70;;;4.95;;
30062;SDS011;16889;67.864;24.990;2023-08-01T22:43:06;8.20;;;4.78;;
30062;SDS011;16889;67.864;24.990;2023-08-01T22:47:53;14.20;;;6.22;;
30062;SDS011;16889;67.864;24.990;2023-08-01T22:52:39;10.95;;;7.05;;
30062;SDS011;16889;67.864;24.990;2023-08-01T22:57:25;13.65;;;7.10;;
30062;SDS011;16889;67.864;24.990;2023-08-01T23:02:11;10.25;;;7.18;;
30062;SDS011;16889;67.864;24.990;2023-08-01T23:06:57;40.38;;;8.75;;
30062;SDS011;16889;67.864;24.990;2023-08-01T23:11:43;14.80;;;8.05;;
30062;SDS011;16889;67.864;24.990;2023-08-01T23:16:29;14.43;;;7.68;;
30062;SDS011;16889;67.864;24.990;2023-08-01T23:21:15;13.68;;;7.50;;
30062;SDS011;16889;67.864;24.990;2023-08-01T23:26:01;24.27;;;9.00;;
30062;SDS011;16889;67.864;24.990;2023-08-01T23:30:51;14.95;;;8.45;;
30062;SDS011;16889;67.864;24.990;2023-08-01T23:35:37;18.83;;;9.73;;
30062;SDS011;16889;67.864;24.990;2023-08-01T23:40:23;14.25;;;9.20;;
30062;SDS011;16889;67.864;24.990;2023-08-01T23:45:09;20.67;;;9.85;;
30062;SDS011;16889;67.864;24.990;2023-08-01T23:49:55;13.25;;;9.82;;
30062;SDS011;16889;67.864;24.990;2023-08-01T23:54:41;39.92;;;11.27;;
30062;SDS011;16889;67.864;24.990;2023-08-01T23:59:28;25.80;;;10.32;;
